createdAt,value
2023-11-09T00:00:12.322Z,9.5
2023-11-09T00:01:29.423Z,9.3
2023-11-09T00:02:46.325Z,9.1
2023-11-09T00:04:03.405Z,9.1
2023-11-09T00:05:20.350Z,9.1
2023-11-09T00:06:37.473Z,9.1
2023-11-09T00:07:54.303Z,9
2023-11-09T00:09:11.321Z,8.8
2023-11-09T00:10:28.505Z,8.7
2023-11-09T00:11:45.421Z,8.6
2023-11-09T00:13:02.387Z,8.5
2023-11-09T00:14:19.394Z,8.4
2023-11-09T00:15:36.340Z,8.4
2023-11-09T00:16:53.859Z,8.5
2023-11-09T00:18:10.402Z,8.7
2023-11-09T00:19:27.514Z,8.9
2023-11-09T00:20:44.365Z,9
2023-11-09T00:22:01.482Z,9.1
2023-11-09T00:23:18.543Z,9.1
2023-11-09T00:24:35.349Z,9.1
2023-11-09T00:25:52.665Z,9.2
2023-11-09T00:27:09.434Z,9.2
2023-11-09T00:28:26.889Z,9.2
2023-11-09T00:29:43.388Z,9.3
2023-11-09T00:31:00.465Z,9.3
2023-11-09T00:32:17.547Z,9.2
2023-11-09T00:33:34.376Z,9.1
2023-11-09T00:34:51.417Z,9
2023-11-09T00:36:08.370Z,9
2023-11-09T00:37:25.474Z,9
2023-11-09T00:38:42.448Z,9
2023-11-09T00:39:59.419Z,9.1
2023-11-09T00:41:16.398Z,9.1
2023-11-09T00:42:33.394Z,9.1
2023-11-09T00:43:50.538Z,9.1
2023-11-09T00:45:07.474Z,9.1
2023-11-09T00:46:24.399Z,9
2023-11-09T00:47:41.382Z,9
2023-11-09T00:48:58.832Z,9
2023-11-09T00:50:15.399Z,9
2023-11-09T00:51:32.395Z,9
2023-11-09T00:52:49.386Z,9
2023-11-09T00:54:06.407Z,9
2023-11-09T00:55:23.444Z,9
2023-11-09T00:56:40.462Z,8.9
2023-11-09T00:57:57.522Z,8.8
2023-11-09T00:59:14.598Z,8.7
2023-11-09T01:00:31.392Z,8.7
2023-11-09T01:01:48.537Z,8.6
2023-11-09T01:03:05.477Z,8.6
2023-11-09T01:04:22.492Z,8.7
2023-11-09T01:05:40.151Z,8.6
2023-11-09T01:06:57.502Z,8.5
2023-11-09T01:08:14.486Z,8.4
2023-11-09T01:09:31.495Z,8.3
2023-11-09T01:10:48.469Z,8.1
2023-11-09T01:12:05.511Z,8.1
2023-11-09T01:13:22.480Z,8.1
2023-11-09T01:14:39.482Z,8.2
2023-11-09T01:15:56.444Z,8.3
2023-11-09T01:17:13.495Z,8.5
2023-11-09T01:18:30.639Z,8.6
2023-11-09T01:19:47.538Z,8.7
2023-11-09T01:21:04.599Z,8.8
2023-11-09T01:22:21.473Z,8.9
2023-11-09T01:23:38.511Z,8.9
2023-11-09T01:24:55.471Z,9
2023-11-09T01:26:12.432Z,9
2023-11-09T01:27:29.412Z,9
2023-11-09T01:28:46.488Z,9.1
2023-11-09T01:30:03.602Z,9.1
2023-11-09T01:31:20.496Z,9
2023-11-09T01:32:38.229Z,9
2023-11-09T01:33:59.531Z,8.9
2023-11-09T01:35:12.467Z,8.9
2023-11-09T01:36:29.456Z,8.8
2023-11-09T01:37:46.441Z,8.8
2023-11-09T01:39:03.508Z,8.8
2023-11-09T01:40:20.552Z,8.8
2023-11-09T01:41:37.469Z,8.8
2023-11-09T01:42:54.478Z,8.8
2023-11-09T01:44:11.472Z,8.7
2023-11-09T01:45:28.653Z,8.7
2023-11-09T01:46:45.493Z,8.7
2023-11-09T01:48:02.533Z,8.7
2023-11-09T01:49:19.510Z,8.8
2023-11-09T01:50:36.503Z,8.8
2023-11-09T01:51:53.517Z,8.8
2023-11-09T01:53:10.601Z,8.8
2023-11-09T01:54:27.514Z,8.8
2023-11-09T01:55:44.474Z,8.8
2023-11-09T01:57:01.475Z,8.8
2023-11-09T01:58:18.573Z,8.8
2023-11-09T01:59:35.469Z,8.7
2023-11-09T02:00:52.647Z,8.8
2023-11-09T02:02:09.488Z,8.8
2023-11-09T02:03:26.516Z,8.8
2023-11-09T02:04:43.672Z,8.8
2023-11-09T02:06:00.539Z,8.8
2023-11-09T02:07:17.557Z,8.8
2023-11-09T02:08:34.550Z,8.8
2023-11-09T02:09:51.537Z,8.8
2023-11-09T02:11:09.077Z,8.8
2023-11-09T02:12:25.513Z,8.7
2023-11-09T02:13:42.694Z,8.5
2023-11-09T02:14:59.581Z,8.2
2023-11-09T02:16:16.616Z,8
2023-11-09T02:17:34.292Z,7.8
2023-11-09T02:18:51.629Z,7.7
2023-11-09T02:20:08.504Z,7.6
2023-11-09T02:21:25.495Z,7.5
2023-11-09T02:22:42.505Z,7.6
2023-11-09T02:23:59.556Z,7.7
2023-11-09T02:25:16.704Z,7.8
2023-11-09T02:26:33.517Z,7.9
2023-11-09T02:27:50.612Z,7.9
2023-11-09T02:29:07.534Z,8
2023-11-09T02:30:24.602Z,8.1
2023-11-09T02:31:41.934Z,8.3
2023-11-09T02:32:58.564Z,8.3
2023-11-09T02:34:15.588Z,8.3
2023-11-09T02:35:32.730Z,8.4
2023-11-09T02:36:49.632Z,8.4
2023-11-09T02:38:06.524Z,8.5
2023-11-09T02:39:23.562Z,8.5
2023-11-09T02:40:40.609Z,8.5
2023-11-09T02:41:57.551Z,8.5
2023-11-09T02:43:15.366Z,8.5
2023-11-09T02:44:32.683Z,8.5
2023-11-09T02:45:49.727Z,8.5
2023-11-09T02:47:06.570Z,8.4
2023-11-09T02:48:23.631Z,8.3
2023-11-09T02:49:40.578Z,8.2
2023-11-09T02:50:57.693Z,8.2
2023-11-09T02:52:14.567Z,8.1
2023-11-09T02:53:31.680Z,8
2023-11-09T02:54:48.553Z,8
2023-11-09T02:56:05.584Z,8
2023-11-09T02:57:22.558Z,8.1
2023-11-09T02:58:39.625Z,8.3
2023-11-09T02:59:56.609Z,8.4
2023-11-09T03:01:13.786Z,8.5
2023-11-09T03:02:30.691Z,8.5
2023-11-09T03:03:47.626Z,8.4
2023-11-09T03:05:04.603Z,8.2
2023-11-09T03:06:21.693Z,8.1
2023-11-09T03:07:38.627Z,7.9
2023-11-09T03:08:55.576Z,7.7
2023-11-09T03:10:12.652Z,7.5
2023-11-09T03:11:29.618Z,7.3
2023-11-09T03:12:46.576Z,7.3
2023-11-09T03:14:03.606Z,7.2
2023-11-09T03:15:20.603Z,7.2
2023-11-09T03:16:37.634Z,7.1
2023-11-09T03:17:54.987Z,7.1
2023-11-09T03:19:11.638Z,7.2
2023-11-09T03:20:28.999Z,7.3
2023-11-09T03:21:45.580Z,7.4
2023-11-09T03:23:02.645Z,7.5
2023-11-09T03:24:19.654Z,7.5
2023-11-09T03:25:36.636Z,7.5
2023-11-09T03:26:53.592Z,7.5
2023-11-09T03:28:10.854Z,7.7
2023-11-09T03:29:27.609Z,7.8
2023-11-09T03:30:44.885Z,7.8
2023-11-09T03:32:01.683Z,7.9
2023-11-09T03:33:18.704Z,7.8
2023-11-09T03:34:35.703Z,7.9
2023-11-09T03:35:52.937Z,7.9
2023-11-09T03:37:10.355Z,7.8
2023-11-09T03:38:27.637Z,7.8
2023-11-09T03:39:44.705Z,7.9
2023-11-09T03:41:01.664Z,7.9
2023-11-09T03:42:18.901Z,8
2023-11-09T03:43:35.675Z,8.1
2023-11-09T03:44:52.722Z,8.2
2023-11-09T03:46:09.633Z,8.3
2023-11-09T03:47:26.703Z,8.3
2023-11-09T03:48:43.736Z,8.3
2023-11-09T03:50:00.695Z,8.2
2023-11-09T03:51:17.650Z,8.1
2023-11-09T03:52:34.707Z,8
2023-11-09T03:53:51.813Z,8
2023-11-09T03:55:08.685Z,8
2023-11-09T03:56:25.650Z,8
2023-11-09T03:57:42.783Z,8.1
2023-11-09T03:58:59.640Z,8.2
2023-11-09T04:00:17.118Z,8.3
2023-11-09T04:01:33.703Z,8.5
2023-11-09T04:02:50.694Z,8.4
2023-11-09T04:04:07.709Z,8.2
2023-11-09T04:05:24.766Z,8
2023-11-09T04:06:41.650Z,7.8
2023-11-09T04:07:58.667Z,7.5
2023-11-09T04:09:15.654Z,7.3
2023-11-09T04:10:32.768Z,7.3
2023-11-09T04:11:49.660Z,7.2
2023-11-09T04:13:06.737Z,7.3
2023-11-09T04:14:23.656Z,7.3
2023-11-09T04:15:40.694Z,7.5
2023-11-09T04:16:57.742Z,7.6
2023-11-09T04:18:14.718Z,7.6
2023-11-09T04:19:31.798Z,7.6
2023-11-09T04:20:48.708Z,7.7
2023-11-09T04:22:05.821Z,7.7
2023-11-09T04:23:22.672Z,7.7
2023-11-09T04:24:39.666Z,7.7
2023-11-09T04:25:56.804Z,7.9
2023-11-09T04:27:13.706Z,8
2023-11-09T04:28:30.797Z,8.1
2023-11-09T04:29:47.661Z,8.2
2023-11-09T04:31:04.763Z,8.2
2023-11-09T04:32:21.766Z,8.2
2023-11-09T04:33:38.678Z,8.3
2023-11-09T04:34:55.747Z,8.3
2023-11-09T04:36:12.729Z,8.4
2023-11-09T04:37:29.765Z,8.4
2023-11-09T04:38:46.741Z,8.4
2023-11-09T04:40:03.717Z,8.4
2023-11-09T04:41:20.758Z,8.5
2023-11-09T04:42:37.705Z,8.5
2023-11-09T04:43:54.810Z,8.5
2023-11-09T04:45:12.399Z,8.5
2023-11-09T04:46:29.723Z,8.5
2023-11-09T04:47:46.732Z,8.5
2023-11-09T04:49:03.781Z,8.5
2023-11-09T04:50:20.843Z,8.4
2023-11-09T04:51:37.949Z,8.4
2023-11-09T04:52:54.715Z,8.4
2023-11-09T04:54:11.719Z,8.3
2023-11-09T04:55:28.796Z,8.3
2023-11-09T04:56:46.719Z,8.2
2023-11-09T04:58:04.058Z,8.2
2023-11-09T04:59:20.744Z,8.1
2023-11-09T05:00:37.727Z,8.1
2023-11-09T05:01:54.779Z,8.1
2023-11-09T05:03:11.806Z,8.1
2023-11-09T05:04:29.035Z,8.2
2023-11-09T05:05:45.786Z,8.2
2023-11-09T05:07:02.802Z,8.3
2023-11-09T05:08:19.733Z,8.3
2023-11-09T05:09:36.731Z,8.3
2023-11-09T05:10:53.747Z,8.3
2023-11-09T05:12:11.091Z,8.2
2023-11-09T05:13:27.769Z,8.1
2023-11-09T05:14:44.783Z,7.9
2023-11-09T05:16:01.807Z,7.7
2023-11-09T05:17:18.797Z,7.6
2023-11-09T05:18:35.795Z,7.5
2023-11-09T05:19:52.838Z,7.4
2023-11-09T05:21:09.804Z,7.4
2023-11-09T05:22:26.910Z,7.4
2023-11-09T05:23:43.775Z,7.5
2023-11-09T05:25:01.171Z,7.6
2023-11-09T05:26:17.820Z,7.7
2023-11-09T05:27:34.943Z,7.8
2023-11-09T05:28:52.774Z,7.9
2023-11-09T05:30:09.788Z,7.9
2023-11-09T05:31:26.769Z,8
2023-11-09T05:32:45.312Z,8
2023-11-09T05:34:02.885Z,8
2023-11-09T05:35:19.758Z,8
2023-11-09T05:36:36.781Z,8
2023-11-09T05:37:53.817Z,8.1
2023-11-09T05:39:10.784Z,8
2023-11-09T05:40:27.905Z,8
2023-11-09T05:41:44.846Z,8
2023-11-09T05:43:01.837Z,8
2023-11-09T05:44:18.889Z,8
2023-11-09T05:45:35.779Z,8
2023-11-09T05:46:52.802Z,8.1
2023-11-09T05:48:09.908Z,8.2
2023-11-09T05:49:26.840Z,8.2
2023-11-09T05:50:43.820Z,8.2
2023-11-09T05:52:01.846Z,8.3
2023-11-09T05:53:18.866Z,8.4
2023-11-09T05:54:35.808Z,8.4
2023-11-09T05:55:52.896Z,8.3
2023-11-09T05:57:09.823Z,8.2
2023-11-09T05:58:27.024Z,8.1
2023-11-09T05:59:44.496Z,8
2023-11-09T06:01:01.877Z,8
2023-11-09T06:02:18.998Z,7.9
2023-11-09T06:03:35.905Z,7.9
2023-11-09T06:04:52.827Z,7.9
2023-11-09T06:06:09.809Z,7.9
2023-11-09T06:07:26.917Z,7.9
2023-11-09T06:08:45.007Z,7.9
2023-11-09T06:10:01.983Z,8
2023-11-09T06:11:18.828Z,8.1
2023-11-09T06:12:35.984Z,8
2023-11-09T06:13:52.957Z,8
2023-11-09T06:15:09.931Z,8
2023-11-09T06:16:26.930Z,8
2023-11-09T06:17:43.903Z,8.1
2023-11-09T06:19:00.893Z,8.2
2023-11-09T06:20:18.239Z,8.3
2023-11-09T06:21:34.833Z,8.4
2023-11-09T06:22:52.004Z,8.5
2023-11-09T06:24:08.929Z,8.6
2023-11-09T06:25:25.938Z,8.8
2023-11-09T06:26:43.017Z,9
2023-11-09T06:27:59.927Z,9.2
2023-11-09T06:29:16.887Z,9.4
2023-11-09T06:30:33.835Z,9.6
2023-11-09T06:31:50.868Z,9.9
2023-11-09T06:33:07.978Z,10.1
2023-11-09T06:34:25.312Z,10.4
2023-11-09T06:35:41.857Z,10.6
2023-11-09T06:36:58.883Z,10.9
2023-11-09T06:38:15.918Z,11.3
2023-11-09T06:39:32.974Z,11.8
2023-11-09T06:40:49.913Z,12.3
2023-11-09T06:42:06.848Z,12.7
2023-11-09T06:43:23.921Z,13
2023-11-09T06:44:40.912Z,13.2
2023-11-09T06:45:58.161Z,13.5
2023-11-09T06:47:14.904Z,13.6
2023-11-09T06:48:31.862Z,13.8
2023-11-09T06:49:49.762Z,13.9
2023-11-09T06:51:07.362Z,13.7
2023-11-09T06:52:23.914Z,13.6
2023-11-09T06:53:40.958Z,13.5
2023-11-09T06:54:57.920Z,13.6
2023-11-09T06:56:14.974Z,13.8
2023-11-09T06:57:31.889Z,13.9
2023-11-09T06:58:49.001Z,14.2
2023-11-09T07:00:05.922Z,14.4
2023-11-09T07:01:22.946Z,14.3
2023-11-09T07:02:39.951Z,14.2
2023-11-09T07:03:57.080Z,14
2023-11-09T07:05:15.908Z,13.9
2023-11-09T07:06:33.061Z,13.8
2023-11-09T07:07:49.916Z,14.1
2023-11-09T07:09:06.925Z,14.3
2023-11-09T07:10:24.002Z,14.4
2023-11-09T07:11:40.931Z,14.5
2023-11-09T07:12:58.107Z,14.6
2023-11-09T07:14:15.215Z,14.8
2023-11-09T07:15:31.989Z,14.9
2023-11-09T07:16:48.993Z,15
2023-11-09T07:18:06.139Z,14.9
2023-11-09T07:19:23.011Z,14.6
2023-11-09T07:20:39.985Z,14.2
2023-11-09T07:21:56.962Z,13.7
2023-11-09T07:23:13.970Z,13.2
2023-11-09T07:24:31.107Z,12.7
2023-11-09T07:25:48.034Z,12.2
2023-11-09T07:27:04.965Z,11.9
2023-11-09T07:28:22.635Z,11.7
2023-11-09T07:29:39.966Z,11.5
2023-11-09T07:30:56.951Z,11.2
2023-11-09T07:32:13.988Z,11.1
2023-11-09T07:33:31.155Z,10.8
2023-11-09T07:34:47.964Z,10.7
2023-11-09T07:36:04.964Z,10.7
2023-11-09T07:37:24.622Z,10.7
2023-11-09T07:38:39.308Z,10.8
2023-11-09T07:39:55.982Z,10.9
2023-11-09T07:41:13.019Z,11
2023-11-09T07:42:29.980Z,11.1
2023-11-09T07:43:47.183Z,11.1
2023-11-09T07:45:03.983Z,11.2
2023-11-09T07:46:21.074Z,11.2
2023-11-09T07:47:38.058Z,11.3
2023-11-09T07:48:55.014Z,11.4
2023-11-09T07:50:12.099Z,11.6
2023-11-09T07:51:28.998Z,11.7
2023-11-09T07:52:46.242Z,11.7
2023-11-09T07:54:03.131Z,11.8
2023-11-09T07:55:20.040Z,12.1
2023-11-09T07:56:37.047Z,12.2
2023-11-09T07:57:53.994Z,12.5
2023-11-09T07:59:10.987Z,12.9
2023-11-09T08:00:28.058Z,13.1
2023-11-09T08:01:45.034Z,13.3
2023-11-09T08:03:02.061Z,13.4
2023-11-09T08:04:19.054Z,13.4
2023-11-09T08:05:36.032Z,13.3
2023-11-09T08:06:53.002Z,13.1
2023-11-09T08:08:10.016Z,13.1
2023-11-09T08:09:27.017Z,13
2023-11-09T08:10:44.464Z,12.9
2023-11-09T08:12:01.071Z,12.9
2023-11-09T08:13:18.101Z,13
2023-11-09T08:14:35.075Z,13.1
2023-11-09T08:15:52.152Z,13.1
2023-11-09T08:17:11.553Z,13.2
2023-11-09T08:18:26.495Z,13.2
2023-11-09T08:19:43.201Z,13.2
2023-11-09T08:21:00.008Z,13.1
2023-11-09T08:22:17.031Z,13.1
2023-11-09T08:23:34.122Z,13.3
2023-11-09T08:24:51.075Z,13.5
2023-11-09T08:26:08.125Z,13.8
2023-11-09T08:27:25.096Z,14
2023-11-09T08:28:42.100Z,14.3
2023-11-09T08:29:59.220Z,14.5
2023-11-09T08:31:16.071Z,14.6
2023-11-09T08:32:33.045Z,14.7
2023-11-09T08:33:50.040Z,14.6
2023-11-09T08:35:07.116Z,14.6
2023-11-09T08:36:24.058Z,14.4
2023-11-09T08:37:41.071Z,14.5
2023-11-09T08:38:58.118Z,14.5
2023-11-09T08:40:15.307Z,14.5
2023-11-09T08:41:32.257Z,14.5
2023-11-09T08:42:49.065Z,14.4
2023-11-09T08:44:06.078Z,14.3
2023-11-09T08:45:23.227Z,14.2
2023-11-09T08:46:40.194Z,14.2
2023-11-09T08:47:57.101Z,14.3
2023-11-09T08:49:14.256Z,14.5
2023-11-09T08:50:31.136Z,14.5
2023-11-09T08:51:48.152Z,14.4
2023-11-09T08:53:05.344Z,14.4
2023-11-09T08:54:22.101Z,14.5
2023-11-09T08:55:39.145Z,14.6
2023-11-09T08:56:56.169Z,14.8
2023-11-09T08:58:13.141Z,15.2
2023-11-09T08:59:31.497Z,15.5
2023-11-09T09:00:47.072Z,15.5
2023-11-09T09:02:04.165Z,15.4
2023-11-09T09:03:21.063Z,15.5
2023-11-09T09:04:38.132Z,15.6
2023-11-09T09:05:55.100Z,15.5
2023-11-09T09:07:12.190Z,15.5
2023-11-09T09:08:29.096Z,15.6
2023-11-09T09:09:46.858Z,15.6
2023-11-09T09:11:05.918Z,15.7
2023-11-09T09:12:20.204Z,15.8
2023-11-09T09:13:38.157Z,15.9
2023-11-09T09:14:55.138Z,15.9
2023-11-09T09:16:12.166Z,15.7
2023-11-09T09:17:29.165Z,15.6
2023-11-09T09:18:46.278Z,15.5
2023-11-09T09:20:04.228Z,15.4
2023-11-09T09:21:21.206Z,15.4
2023-11-09T09:22:38.209Z,15.4
2023-11-09T09:23:55.121Z,15.4
2023-11-09T09:25:12.345Z,15.5
2023-11-09T09:26:29.117Z,15.6
2023-11-09T09:27:46.210Z,15.5
2023-11-09T09:29:03.361Z,15.4
2023-11-09T09:30:20.640Z,15.4
2023-11-09T09:31:37.550Z,15.5
2023-11-09T09:32:55.350Z,15.8
2023-11-09T09:34:12.318Z,15.9
2023-11-09T09:35:32.178Z,15.9
2023-11-09T09:36:46.141Z,16.1
2023-11-09T09:38:04.944Z,16.1
2023-11-09T09:39:20.154Z,16.2
2023-11-09T09:40:43.960Z,16.4
2023-11-09T09:41:54.381Z,16.3
2023-11-09T09:43:11.173Z,16.1
2023-11-09T09:44:28.227Z,16.2
2023-11-09T09:45:45.143Z,16.2
2023-11-09T09:47:02.184Z,16.3
2023-11-09T09:48:19.183Z,16.4
2023-11-09T09:49:36.239Z,16.4
2023-11-09T09:50:53.294Z,16.4
2023-11-09T09:52:10.230Z,16.5
2023-11-09T09:53:27.202Z,16.6
2023-11-09T09:54:44.188Z,16.6
2023-11-09T09:56:01.268Z,16.8
2023-11-09T09:57:18.171Z,17
2023-11-09T09:58:35.287Z,17.3
2023-11-09T09:59:52.283Z,17.7
2023-11-09T10:01:09.163Z,17.9
2023-11-09T10:02:26.189Z,18.3
2023-11-09T10:03:43.194Z,18.2
2023-11-09T10:05:00.319Z,17.9
2023-11-09T10:06:17.286Z,17.5
2023-11-09T10:07:34.414Z,17.2
2023-11-09T10:08:51.250Z,16.7
2023-11-09T10:10:08.395Z,16.4
2023-11-09T10:11:25.191Z,16.2
2023-11-09T10:12:42.221Z,16.2
2023-11-09T10:13:59.253Z,16.3
2023-11-09T10:15:16.204Z,16.4
2023-11-09T10:16:33.410Z,16.5
2023-11-09T10:17:50.273Z,16.5
2023-11-09T10:19:07.239Z,16.3
2023-11-09T10:20:24.229Z,16.3
2023-11-09T10:21:41.379Z,16.4
2023-11-09T10:22:58.278Z,16.5
2023-11-09T10:24:18.033Z,16.6
2023-11-09T10:25:37.517Z,16.9
2023-11-09T10:26:54.412Z,17
2023-11-09T10:28:11.289Z,17.1
2023-11-09T10:29:28.335Z,17.2
2023-11-09T10:30:45.760Z,17.3
2023-11-09T10:32:04.390Z,17.4
2023-11-09T10:33:21.260Z,17.6
2023-11-09T10:34:38.367Z,17.7
2023-11-09T10:35:55.206Z,17.7
2023-11-09T10:37:12.240Z,17.7
2023-11-09T10:38:29.206Z,17.7
2023-11-09T10:39:46.294Z,17.5
2023-11-09T10:41:08.201Z,17.4
2023-11-09T10:42:20.358Z,17.4
2023-11-09T10:43:37.280Z,17.4
2023-11-09T10:44:54.469Z,17.6
2023-11-09T10:46:11.311Z,17.8
2023-11-09T10:47:28.257Z,17.7
2023-11-09T10:48:45.357Z,17.7
2023-11-09T10:50:04.773Z,17.8
2023-11-09T10:51:19.343Z,18.1
2023-11-09T10:52:36.280Z,18.1
2023-11-09T10:53:53.253Z,18.2
2023-11-09T10:55:10.394Z,18.2
2023-11-09T10:56:27.259Z,18.3
2023-11-09T10:57:44.289Z,18.5
2023-11-09T10:59:01.263Z,18.6
2023-11-09T11:00:18.334Z,18.5
2023-11-09T11:01:35.388Z,18.7
2023-11-09T11:02:52.283Z,18.9
2023-11-09T11:04:09.393Z,18.9
2023-11-09T11:05:27.184Z,18.9
2023-11-09T11:06:44.501Z,18.8
2023-11-09T11:08:01.315Z,18.9
2023-11-09T11:09:18.305Z,18.5
2023-11-09T11:10:35.384Z,18.4
2023-11-09T11:11:52.393Z,18.4
2023-11-09T11:13:09.297Z,18.5
2023-11-09T11:14:26.301Z,18.5
2023-11-09T11:15:43.369Z,18.1
2023-11-09T11:17:00.320Z,17.8
2023-11-09T11:18:17.386Z,17.7
2023-11-09T11:19:34.421Z,17.6
2023-11-09T11:20:52.539Z,17.6
2023-11-09T11:22:08.302Z,17.8
2023-11-09T11:23:25.395Z,18
2023-11-09T11:24:42.343Z,18
2023-11-09T11:26:00.345Z,17.8
2023-11-09T11:27:20.688Z,17.5
2023-11-09T11:28:34.335Z,17.3
2023-11-09T11:29:51.288Z,17.2
2023-11-09T11:31:08.327Z,17.1
2023-11-09T11:32:25.378Z,17
2023-11-09T11:33:42.464Z,16.9
2023-11-09T11:34:59.466Z,17
2023-11-09T11:36:16.310Z,17.1
2023-11-09T11:37:33.374Z,17.4
2023-11-09T11:38:52.187Z,17.7
2023-11-09T11:40:07.372Z,17.9
2023-11-09T11:41:24.448Z,18.2
2023-11-09T11:42:41.353Z,18.3
2023-11-09T11:44:01.567Z,18.3
2023-11-09T11:45:18.373Z,18.2
2023-11-09T11:46:35.455Z,18.2
2023-11-09T11:47:52.602Z,18.3
2023-11-09T11:49:09.491Z,18.5
2023-11-09T11:50:26.394Z,18.7
2023-11-09T11:51:43.321Z,18.6
2023-11-09T11:53:00.354Z,18.5
2023-11-09T11:54:17.810Z,18.5
2023-11-09T11:55:36.312Z,18.4
2023-11-09T11:56:52.801Z,18.4
2023-11-09T11:58:09.491Z,18.3
2023-11-09T11:59:26.482Z,18.4
2023-11-09T12:00:43.532Z,18.5
2023-11-09T12:02:00.406Z,18.6
2023-11-09T12:03:17.412Z,18.9
2023-11-09T12:04:34.463Z,19.1
2023-11-09T12:05:51.386Z,19.2
2023-11-09T12:07:08.359Z,19
2023-11-09T12:08:25.400Z,19.1
2023-11-09T12:09:42.853Z,19.3
2023-11-09T12:11:00.377Z,19.3
2023-11-09T12:12:17.352Z,19.2
2023-11-09T12:13:34.412Z,18.9
2023-11-09T12:14:51.592Z,18.6
2023-11-09T12:16:08.560Z,18.4
2023-11-09T12:17:25.491Z,18.2
2023-11-09T12:18:42.463Z,18
2023-11-09T12:19:59.397Z,17.8
2023-11-09T12:21:16.381Z,17.7
2023-11-09T12:22:33.439Z,17.7
2023-11-09T12:23:50.504Z,17.6
2023-11-09T12:25:07.414Z,17.5
2023-11-09T12:26:24.392Z,17.5
2023-11-09T12:27:41.466Z,17.4
2023-11-09T12:28:58.664Z,17.4
2023-11-09T12:30:15.411Z,17.4
2023-11-09T12:31:32.427Z,17.5
2023-11-09T12:32:49.480Z,17.7
2023-11-09T12:34:06.646Z,17.7
2023-11-09T12:35:23.485Z,17.7
2023-11-09T12:36:40.625Z,17.6
2023-11-09T12:37:57.618Z,17.5
2023-11-09T12:39:14.537Z,17.4
2023-11-09T12:40:31.493Z,17.4
2023-11-09T12:41:48.448Z,17.4
2023-11-09T12:43:05.549Z,17.3
2023-11-09T12:44:22.413Z,17.2
2023-11-09T12:45:39.582Z,17.1
2023-11-09T12:46:56.488Z,17.1
2023-11-09T12:48:13.600Z,17
2023-11-09T12:49:30.580Z,17.1
2023-11-09T12:50:47.470Z,17.2
2023-11-09T12:52:04.471Z,17.2
2023-11-09T12:53:21.513Z,17.3
2023-11-09T12:54:40.682Z,17.2
2023-11-09T12:55:55.490Z,17.2
2023-11-09T12:57:12.461Z,17.2
2023-11-09T12:58:29.551Z,17.1
2023-11-09T12:59:46.420Z,17
2023-11-09T13:01:03.546Z,16.9
2023-11-09T13:02:20.699Z,16.9
2023-11-09T13:03:37.516Z,16.8
2023-11-09T13:04:54.526Z,16.7
2023-11-09T13:06:11.465Z,16.7
2023-11-09T13:07:28.568Z,16.7
2023-11-09T13:08:45.570Z,16.7
2023-11-09T13:10:03.200Z,16.6
2023-11-09T13:11:20.454Z,16.7
2023-11-09T13:12:37.485Z,16.9
2023-11-09T13:13:54.565Z,17.1
2023-11-09T13:15:11.781Z,17.4
2023-11-09T13:16:28.656Z,17.5
2023-11-09T13:17:45.563Z,17.6
2023-11-09T13:19:09.400Z,17.6
2023-11-09T13:20:19.658Z,17.8
2023-11-09T13:21:36.591Z,18
2023-11-09T13:22:53.595Z,18
2023-11-09T13:24:10.532Z,18.1
2023-11-09T13:25:27.535Z,18.1
2023-11-09T13:26:44.461Z,18
2023-11-09T13:28:01.497Z,18
2023-11-09T13:29:18.588Z,17.8
2023-11-09T13:30:35.538Z,17.7
2023-11-09T13:31:52.585Z,17.5
2023-11-09T13:33:09.777Z,17.3
2023-11-09T13:34:27.635Z,17.2
2023-11-09T13:35:45.297Z,17.2
2023-11-09T13:37:02.566Z,17.2
2023-11-09T13:38:19.532Z,17.2
2023-11-09T13:39:36.729Z,17.4
2023-11-09T13:40:53.646Z,17.5
2023-11-09T13:42:10.665Z,17.5
2023-11-09T13:43:27.530Z,17.7
2023-11-09T13:44:44.591Z,17.7
2023-11-09T13:46:01.671Z,17.7
2023-11-09T13:47:18.511Z,17.8
2023-11-09T13:48:35.832Z,18
2023-11-09T13:49:53.582Z,18.2
2023-11-09T13:51:10.527Z,18.3
2023-11-09T13:52:27.580Z,18.4
2023-11-09T13:53:44.634Z,18.5
2023-11-09T13:55:01.746Z,18.5
2023-11-09T13:56:20.614Z,18.6
2023-11-09T13:57:38.745Z,18.7
2023-11-09T13:58:58.928Z,18.6
2023-11-09T14:00:15.428Z,18.4
2023-11-09T14:01:32.640Z,18.3
2023-11-09T14:02:50.568Z,18.2
2023-11-09T14:04:07.687Z,18
2023-11-09T14:05:24.751Z,17.9
2023-11-09T14:06:41.552Z,17.8
2023-11-09T14:07:58.775Z,17.8
2023-11-09T14:09:15.702Z,17.6
2023-11-09T14:10:32.574Z,17.5
2023-11-09T14:11:49.569Z,17.5
2023-11-09T14:13:06.618Z,17.4
2023-11-09T14:14:23.544Z,17.2
2023-11-09T14:15:40.601Z,17
2023-11-09T14:16:57.602Z,16.9
2023-11-09T14:18:14.605Z,16.7
2023-11-09T14:19:31.598Z,16.7
2023-11-09T14:20:48.659Z,16.5
2023-11-09T14:22:05.592Z,16.3
2023-11-09T14:23:22.719Z,16.1
2023-11-09T14:24:39.677Z,16.1
2023-11-09T14:25:56.614Z,16.1
2023-11-09T14:27:13.665Z,16.1
2023-11-09T14:28:30.584Z,16.1
2023-11-09T14:29:47.607Z,16
2023-11-09T14:31:04.973Z,15.9
2023-11-09T14:32:21.741Z,15.8
2023-11-09T14:33:38.676Z,15.9
2023-11-09T14:34:55.968Z,15.8
2023-11-09T14:36:12.674Z,15.8
2023-11-09T14:37:29.698Z,15.7
2023-11-09T14:38:46.732Z,15.7
2023-11-09T14:40:03.908Z,15.8
2023-11-09T14:41:20.665Z,15.9
2023-11-09T14:42:37.716Z,16
2023-11-09T14:43:54.634Z,16
2023-11-09T14:45:11.722Z,16.1
2023-11-09T14:46:28.640Z,16.1
2023-11-09T14:47:45.729Z,16
2023-11-09T14:49:02.602Z,16
2023-11-09T14:50:19.681Z,15.9
2023-11-09T14:51:36.852Z,15.9
2023-11-09T14:52:53.656Z,15.8
2023-11-09T14:54:10.632Z,15.8
2023-11-09T14:55:27.670Z,15.7
2023-11-09T14:56:44.678Z,15.6
2023-11-09T14:58:01.962Z,15.5
2023-11-09T14:59:18.685Z,15.4
2023-11-09T15:00:35.734Z,15.4
2023-11-09T15:01:52.715Z,15.3
2023-11-09T15:03:09.739Z,15.3
2023-11-09T15:04:26.708Z,15.3
2023-11-09T15:05:43.741Z,15.4
2023-11-09T15:07:01.242Z,15.4
2023-11-09T15:08:18.645Z,15.4
2023-11-09T15:09:35.808Z,15.4
2023-11-09T15:10:52.672Z,15.4
2023-11-09T15:12:09.742Z,15.3
2023-11-09T15:13:26.727Z,15.1
2023-11-09T15:14:43.712Z,15
2023-11-09T15:16:01.171Z,14.9
2023-11-09T15:17:19.123Z,14.8
2023-11-09T15:18:35.770Z,14.7
2023-11-09T15:19:52.862Z,14.6
2023-11-09T15:21:09.658Z,14.6
2023-11-09T15:22:26.725Z,14.6
2023-11-09T15:23:43.680Z,14.6
2023-11-09T15:25:00.680Z,14.5
2023-11-09T15:26:17.631Z,14.6
2023-11-09T15:27:34.767Z,14.6
2023-11-09T15:28:52.366Z,14.7
2023-11-09T15:30:08.735Z,14.5
2023-11-09T15:31:25.675Z,14.5
2023-11-09T15:32:42.805Z,14.5
2023-11-09T15:33:59.728Z,14.6
2023-11-09T15:35:16.993Z,14.6
2023-11-09T15:36:33.808Z,14.7
2023-11-09T15:37:51.691Z,14.7
2023-11-09T15:39:09.209Z,14.6
2023-11-09T15:40:40.694Z,14.5
2023-11-09T15:41:42.817Z,14.4
2023-11-09T15:42:59.677Z,14.4
2023-11-09T15:44:16.775Z,14.4
2023-11-09T15:45:33.727Z,14.5
2023-11-09T15:46:50.790Z,14.5
2023-11-09T15:48:07.686Z,14.5
2023-11-09T15:49:24.755Z,14.4
2023-11-09T15:50:41.725Z,14.3
2023-11-09T15:51:58.695Z,14.3
2023-11-09T15:53:15.737Z,14.3
2023-11-09T15:54:32.833Z,14.3
2023-11-09T15:55:49.731Z,14.2
2023-11-09T15:57:06.691Z,14.2
2023-11-09T15:58:23.939Z,14.1
2023-11-09T15:59:41.798Z,14.1
2023-11-09T16:00:58.685Z,14.1
2023-11-09T16:02:15.809Z,14
2023-11-09T16:03:32.799Z,13.9
2023-11-09T16:04:49.805Z,13.9
2023-11-09T16:06:06.726Z,13.9
2023-11-09T16:07:23.714Z,13.9
2023-11-09T16:08:40.927Z,13.9
2023-11-09T16:10:03.223Z,13.8
2023-11-09T16:11:14.735Z,13.8
2023-11-09T16:12:31.755Z,13.8
2023-11-09T16:13:48.782Z,13.8
2023-11-09T16:15:05.741Z,13.7
2023-11-09T16:16:22.926Z,13.7
2023-11-09T16:17:39.778Z,13.7
2023-11-09T16:18:56.742Z,13.6
2023-11-09T16:20:13.745Z,13.6
2023-11-09T16:21:30.912Z,13.6
2023-11-09T16:22:48.160Z,13.6
2023-11-09T16:24:05.884Z,13.6
2023-11-09T16:25:22.814Z,13.6
2023-11-09T16:26:39.787Z,13.5
2023-11-09T16:27:56.881Z,13.5
2023-11-09T16:29:13.806Z,13.5
2023-11-09T16:30:30.765Z,13.4
2023-11-09T16:31:47.969Z,13.3
2023-11-09T16:33:04.880Z,13.2
2023-11-09T16:34:21.838Z,13.2
2023-11-09T16:35:39.175Z,13.2
2023-11-09T16:36:55.787Z,13.2
2023-11-09T16:38:12.915Z,13.1
2023-11-09T16:39:29.825Z,13.2
2023-11-09T16:40:46.794Z,13.2
2023-11-09T16:42:03.906Z,13.2
2023-11-09T16:43:20.794Z,13.2
2023-11-09T16:44:37.860Z,13.2
2023-11-09T16:45:54.828Z,13.2
2023-11-09T16:47:11.800Z,13.1
2023-11-09T16:48:28.812Z,13.2
2023-11-09T16:49:45.840Z,13.1
2023-11-09T16:51:02.789Z,13.1
2023-11-09T16:52:19.775Z,13.2
2023-11-09T16:53:36.830Z,13.2
2023-11-09T16:54:53.846Z,13.3
2023-11-09T16:56:10.801Z,13.3
2023-11-09T16:57:27.760Z,13.3
2023-11-09T16:58:44.889Z,13.2
2023-11-09T17:00:01.952Z,13.1
2023-11-09T17:01:18.791Z,13
2023-11-09T17:02:35.930Z,12.9
2023-11-09T17:03:53.035Z,12.8
2023-11-09T17:05:09.886Z,12.7
2023-11-09T17:06:26.910Z,12.7
2023-11-09T17:07:44.844Z,12.6
2023-11-09T17:09:00.935Z,12.6
2023-11-09T17:10:17.868Z,12.5
2023-11-09T17:11:34.898Z,12.5
2023-11-09T17:12:51.835Z,12.4
2023-11-09T17:14:08.843Z,12.4
2023-11-09T17:15:25.965Z,12.5
2023-11-09T17:16:42.903Z,12.5
2023-11-09T17:17:59.886Z,12.5
2023-11-09T17:19:16.843Z,12.5
2023-11-09T17:20:33.848Z,12.5
2023-11-09T17:21:50.835Z,12.6
2023-11-09T17:23:08.388Z,12.5
2023-11-09T17:24:28.840Z,12.6
2023-11-09T17:25:45.871Z,12.6